createdAt,value
2022-11-09T00:00:54.020Z,7.89
2022-11-09T00:03:21.894Z,7.85
2022-11-09T00:05:59.875Z,7.78
2022-11-09T00:08:27.640Z,7.68
2022-11-09T00:10:54.979Z,7.72
2022-11-09T00:13:22.902Z,7.94
2022-11-09T00:15:50.583Z,8.05
2022-11-09T00:18:17.940Z,7.99
2022-11-09T00:20:48.053Z,7.98
2022-11-09T00:23:17.033Z,8.18
2022-11-09T00:25:44.885Z,8.27
2022-11-09T00:28:12.226Z,8.30
2022-11-09T00:30:40.026Z,8.23
2022-11-09T00:33:08.757Z,8.17
2022-11-09T00:35:39.385Z,8.23
2022-11-09T00:38:06.866Z,8.19
2022-11-09T00:40:34.277Z,8.07
2022-11-09T00:43:01.696Z,7.69
2022-11-09T00:45:29.034Z,7.62
2022-11-09T00:47:57.925Z,7.70
2022-11-09T00:50:25.265Z,7.72
2022-11-09T00:52:52.602Z,7.83
2022-11-09T00:55:21.136Z,7.91
2022-11-09T00:57:51.989Z,7.91
2022-11-09T01:00:22.402Z,8.06
2022-11-09T01:02:53.314Z,8.09
2022-11-09T01:05:21.062Z,8.22
2022-11-09T01:07:49.596Z,8.26
2022-11-09T01:10:16.911Z,8.26
2022-11-09T01:12:44.264Z,8.22
2022-11-09T01:15:11.712Z,8.35
2022-11-09T01:17:39.103Z,8.51
2022-11-09T01:20:06.837Z,8.36
2022-11-09T01:22:34.151Z,8.21
2022-11-09T01:25:01.476Z,7.93
2022-11-09T01:27:28.814Z,7.72
2022-11-09T01:29:56.204Z,7.90
2022-11-09T01:32:24.871Z,8.02
2022-11-09T01:34:52.226Z,8.01
2022-11-09T01:37:19.563Z,8.34
2022-11-09T01:39:46.891Z,8.41
2022-11-09T01:42:14.802Z,8.54
2022-11-09T01:44:43.071Z,8.49
2022-11-09T01:47:24.745Z,8.53
2022-11-09T01:49:59.985Z,8.69
2022-11-09T01:52:43.591Z,8.61
2022-11-09T01:55:15.373Z,8.80
2022-11-09T01:58:08.838Z,8.67
2022-11-09T02:00:38.871Z,8.72
2022-11-09T02:03:10.188Z,8.72
2022-11-09T02:05:38.946Z,8.67
2022-11-09T02:08:07.591Z,8.66
2022-11-09T02:11:10.302Z,8.65
2022-11-09T02:13:47.786Z,8.79
2022-11-09T02:16:15.878Z,8.65
2022-11-09T02:18:55.164Z,8.77
2022-11-09T02:21:27.429Z,8.87
2022-11-09T02:23:55.655Z,8.68
2022-11-09T02:26:36.595Z,8.60
2022-11-09T02:29:05.704Z,8.63
2022-11-09T02:31:36.324Z,8.54
2022-11-09T02:34:09.835Z,8.49
2022-11-09T02:36:37.355Z,8.65
2022-11-09T02:39:08.286Z,8.88
2022-11-09T02:41:41.469Z,8.85
2022-11-09T02:44:09.036Z,9.02
2022-11-09T02:46:37.514Z,8.97
2022-11-09T02:49:05.532Z,8.90
2022-11-09T02:51:33.484Z,8.79
2022-11-09T02:54:00.832Z,8.77
2022-11-09T02:56:28.700Z,8.79
2022-11-09T02:58:56.066Z,8.91
2022-11-09T03:01:23.648Z,8.86
2022-11-09T03:03:51.371Z,8.82
2022-11-09T03:06:18.994Z,8.56
2022-11-09T03:08:46.788Z,8.34
2022-11-09T03:11:15.029Z,8.38
2022-11-09T03:13:42.424Z,8.41
2022-11-09T03:16:09.915Z,8.42
2022-11-09T03:18:39.672Z,8.55
2022-11-09T03:21:07.432Z,8.76
2022-11-09T03:23:35.023Z,8.58
2022-11-09T03:26:03.205Z,8.52
2022-11-09T03:28:30.637Z,8.61
2022-11-09T03:30:58.324Z,8.44
2022-11-09T03:33:26.685Z,8.24
2022-11-09T03:35:54.068Z,8.33
2022-11-09T03:38:22.367Z,8.42
2022-11-09T03:40:50.804Z,8.31
2022-11-09T03:43:18.662Z,8.28
2022-11-09T03:45:47.749Z,8.63
2022-11-09T03:48:15.134Z,8.70
2022-11-09T03:50:42.589Z,8.57
2022-11-09T03:53:10.840Z,8.45
2022-11-09T03:55:38.993Z,8.37
2022-11-09T03:58:07.190Z,8.35
2022-11-09T04:00:35.860Z,8.55
2022-11-09T04:03:03.951Z,8.42
2022-11-09T04:05:31.578Z,8.32
2022-11-09T04:07:59.755Z,8.30
2022-11-09T04:10:27.541Z,8.37
2022-11-09T04:12:54.858Z,8.34
2022-11-09T04:15:22.528Z,8.30
2022-11-09T04:17:58.112Z,8.29
2022-11-09T04:20:26.873Z,8.31
2022-11-09T04:23:03.539Z,8.52
2022-11-09T04:25:33.582Z,8.60
2022-11-09T04:28:01.835Z,8.62
2022-11-09T04:30:31.115Z,8.64
2022-11-09T04:32:59.483Z,8.71
2022-11-09T04:35:28.095Z,8.71
2022-11-09T04:38:00.814Z,8.81
2022-11-09T04:40:29.670Z,8.77
2022-11-09T04:43:00.731Z,8.74
2022-11-09T04:45:28.436Z,8.72
2022-11-09T04:48:03.492Z,8.80
2022-11-09T04:50:31.178Z,8.76
2022-11-09T04:53:18.762Z,8.71
2022-11-09T04:55:46.149Z,8.68
2022-11-09T04:58:13.493Z,8.72
2022-11-09T05:00:40.957Z,8.86
2022-11-09T05:03:08.383Z,9.01
2022-11-09T05:05:36.975Z,8.95
2022-11-09T05:08:05.337Z,9.05
2022-11-09T05:10:33.046Z,9.11
2022-11-09T05:13:01.785Z,9.14
2022-11-09T05:15:29.732Z,9.23
2022-11-09T05:17:57.212Z,9.33
2022-11-09T05:20:25.320Z,9.34
2022-11-09T05:23:11.030Z,9.42
2022-11-09T05:25:38.317Z,9.48
2022-11-09T05:28:05.827Z,9.39
2022-11-09T05:30:33.178Z,9.17
2022-11-09T05:33:00.506Z,9.21
2022-11-09T05:35:27.821Z,9.32
2022-11-09T05:37:55.173Z,9.36
2022-11-09T05:40:22.543Z,9.37
2022-11-09T05:42:49.847Z,9.38
2022-11-09T05:45:41.476Z,9.26
2022-11-09T05:48:06.643Z,9.29
2022-11-09T05:50:34.071Z,9.30
2022-11-09T05:53:17.598Z,9.29
2022-11-09T05:55:45.088Z,9.30
2022-11-09T05:58:12.410Z,9.30
2022-11-09T06:00:39.876Z,9.34
2022-11-09T06:03:11.202Z,9.39
2022-11-09T06:05:40.714Z,9.45
2022-11-09T06:08:13.254Z,9.47
2022-11-09T06:10:41.284Z,9.48
2022-11-09T06:13:09.114Z,9.52
2022-11-09T06:15:36.480Z,9.60
2022-11-09T06:18:03.832Z,9.61
2022-11-09T06:20:32.313Z,9.64
2022-11-09T06:23:03.810Z,9.72
2022-11-09T06:25:32.637Z,9.81
2022-11-09T06:28:00.150Z,9.75
2022-11-09T06:30:27.558Z,9.63
2022-11-09T06:33:04.366Z,9.64
2022-11-09T06:35:31.755Z,9.67
2022-11-09T06:38:00.185Z,9.61
2022-11-09T06:40:28.081Z,9.62
2022-11-09T06:43:01.854Z,9.70
2022-11-09T06:45:30.143Z,9.72
2022-11-09T06:47:58.607Z,9.79
2022-11-09T06:50:27.166Z,9.88
2022-11-09T06:53:03.014Z,9.98
2022-11-09T06:55:32.028Z,9.92
2022-11-09T06:57:59.597Z,9.79
2022-11-09T07:00:27.805Z,9.91
2022-11-09T07:02:55.171Z,9.94
2022-11-09T07:05:23.417Z,10.04
2022-11-09T07:07:50.801Z,10.07
2022-11-09T07:10:18.234Z,10.02
2022-11-09T07:12:45.624Z,10.13
2022-11-09T07:15:13.512Z,10.11
2022-11-09T07:17:41.311Z,10.10
2022-11-09T07:20:10.191Z,10.24
2022-11-09T07:22:41.803Z,10.16
2022-11-09T07:25:10.850Z,10.20
2022-11-09T07:27:38.347Z,10.21
2022-11-09T07:30:06.102Z,10.24
2022-11-09T07:33:06.818Z,10.33
2022-11-09T07:35:22.156Z,10.31
2022-11-09T07:37:49.472Z,10.06
2022-11-09T07:40:16.868Z,9.96
2022-11-09T07:42:44.234Z,9.99
2022-11-09T07:45:11.706Z,9.99
2022-11-09T07:47:39.398Z,10.04
2022-11-09T07:50:07.082Z,10.16
2022-11-09T07:52:34.503Z,10.03
2022-11-09T07:55:01.835Z,10.16
2022-11-09T07:57:29.155Z,10.03
2022-11-09T07:59:56.489Z,9.99
2022-11-09T08:02:23.833Z,10.01
2022-11-09T08:04:51.218Z,10.07
2022-11-09T08:07:18.492Z,10.08
2022-11-09T08:09:45.826Z,10.14
2022-11-09T08:12:13.104Z,10.28
2022-11-09T08:14:40.433Z,10.37
2022-11-09T08:17:07.740Z,10.44
2022-11-09T08:19:35.066Z,10.43
2022-11-09T08:22:02.343Z,10.52
2022-11-09T08:24:29.671Z,10.53
2022-11-09T08:26:56.982Z,10.47
2022-11-09T08:29:24.405Z,10.50
2022-11-09T08:31:52.091Z,10.66
2022-11-09T08:34:19.649Z,10.74
2022-11-09T08:36:47.155Z,10.62
2022-11-09T08:39:14.515Z,10.63
2022-11-09T08:41:41.844Z,10.71
2022-11-09T08:44:09.142Z,10.62
2022-11-09T08:46:41.009Z,10.62
2022-11-09T08:49:08.902Z,10.66
2022-11-09T08:51:36.202Z,10.68
2022-11-09T08:54:03.683Z,10.73
2022-11-09T08:56:31.069Z,10.84
2022-11-09T08:58:58.360Z,10.84
2022-11-09T09:01:26.508Z,10.88
2022-11-09T09:03:53.855Z,10.90
2022-11-09T09:06:21.227Z,10.96
2022-11-09T09:08:48.554Z,10.98
2022-11-09T09:11:16.611Z,11.01
2022-11-09T09:13:43.966Z,11.11
2022-11-09T09:16:15.389Z,11.18
2022-11-09T09:18:43.162Z,11.26
2022-11-09T09:21:11.160Z,11.34
2022-11-09T09:23:38.545Z,11.34
2022-11-09T09:26:06.220Z,11.42
2022-11-09T09:28:33.664Z,11.47
2022-11-09T09:31:01.873Z,11.49
2022-11-09T09:33:29.443Z,11.49
2022-11-09T09:35:58.063Z,11.51
2022-11-09T09:38:29.188Z,11.57
2022-11-09T09:41:00.409Z,11.64
2022-11-09T09:43:41.408Z,11.69
2022-11-09T09:46:43.758Z,11.70
2022-11-09T09:49:27.082Z,11.79
2022-11-09T09:52:29.348Z,11.85
2022-11-09T09:55:10.250Z,11.89
2022-11-09T09:57:41.928Z,11.82
2022-11-09T10:00:24.791Z,11.83
2022-11-09T10:02:52.956Z,11.99
2022-11-09T10:05:21.576Z,12.12
2022-11-09T10:08:13.633Z,12.30
2022-11-09T10:10:47.384Z,12.38
2022-11-09T10:13:46.544Z,12.76
2022-11-09T10:16:28.192Z,13.28
2022-11-09T10:19:29.634Z,13.26
2022-11-09T10:22:27.269Z,13.21
2022-11-09T10:25:18.925Z,13.20
2022-11-09T10:27:52.428Z,13.11
2022-11-09T10:30:21.830Z,12.88
2022-11-09T10:33:07.200Z,12.90
2022-11-09T10:35:45.072Z,13.09
2022-11-09T10:38:45.325Z,13.28
2022-11-09T10:41:45.596Z,13.29
2022-11-09T10:44:31.395Z,13.36
2022-11-09T10:47:19.040Z,13.31
2022-11-09T10:50:13.961Z,13.43
2022-11-09T10:53:18.521Z,13.42
2022-11-09T10:56:21.281Z,13.43
2022-11-09T10:59:30.859Z,14.05
2022-11-09T11:02:26.151Z,13.72
2022-11-09T11:05:17.578Z,13.98
2022-11-09T11:08:22.948Z,14.51
2022-11-09T11:11:35.969Z,14.05
2022-11-09T11:14:35.034Z,13.87
2022-11-09T11:17:46.427Z,13.88
2022-11-09T11:20:37.327Z,13.94
2022-11-09T11:23:27.043Z,14.03
2022-11-09T11:26:19.456Z,14.64
2022-11-09T11:29:13.442Z,14.99
2022-11-09T11:31:59.410Z,14.71
2022-11-09T11:34:59.754Z,14.85
2022-11-09T11:37:52.321Z,15.35
2022-11-09T11:40:37.931Z,15.78
2022-11-09T11:43:38.970Z,15.77
2022-11-09T11:46:46.577Z,15.79
2022-11-09T11:49:38.387Z,15.55
2022-11-09T11:52:38.562Z,15.09
2022-11-09T11:55:45.132Z,14.93
2022-11-09T11:58:43.021Z,14.68
2022-11-09T12:02:01.044Z,14.61
2022-11-09T12:05:23.104Z,14.48
2022-11-09T12:08:15.897Z,14.49
2022-11-09T12:11:42.125Z,14.43
2022-11-09T12:14:40.712Z,14.72
2022-11-09T12:17:59.745Z,14.41
2022-11-09T12:21:10.510Z,14.40
2022-11-09T12:24:15.939Z,14.12
2022-11-09T12:27:35.048Z,13.99
2022-11-09T12:30:53.181Z,13.99
2022-11-09T12:33:46.970Z,14.08
2022-11-09T12:37:02.794Z,14.20
2022-11-09T12:39:55.022Z,14.19
2022-11-09T12:42:53.207Z,14.29
2022-11-09T12:45:40.857Z,14.44
2022-11-09T12:48:30.551Z,14.39
2022-11-09T12:51:17.192Z,14.55
2022-11-09T12:54:10.000Z,14.55
2022-11-09T12:57:08.057Z,14.71
2022-11-09T12:59:58.733Z,14.52
2022-11-09T13:02:54.803Z,14.43
2022-11-09T13:05:41.804Z,14.51
2022-11-09T13:08:30.700Z,14.58
2022-11-09T13:11:26.292Z,14.53
2022-11-09T13:14:33.779Z,14.71
2022-11-09T13:18:02.747Z,14.75
2022-11-09T13:20:57.756Z,14.59
2022-11-09T13:24:03.328Z,14.67
2022-11-09T13:26:50.450Z,14.60
2022-11-09T13:29:42.486Z,14.52
2022-11-09T13:32:31.302Z,14.53
2022-11-09T13:35:40.429Z,14.47
2022-11-09T13:38:30.559Z,14.47
2022-11-09T13:41:34.384Z,14.52
2022-11-09T13:44:32.572Z,14.50
2022-11-09T13:47:24.257Z,14.49
2022-11-09T13:50:18.557Z,14.62
2022-11-09T13:53:04.947Z,14.64
2022-11-09T13:55:50.789Z,14.72
2022-11-09T13:58:41.567Z,14.80
2022-11-09T14:01:38.498Z,14.69
2022-11-09T14:04:31.244Z,14.62
2022-11-09T14:07:16.944Z,14.51
2022-11-09T14:10:25.158Z,14.43
2022-11-09T14:13:29.717Z,14.41
2022-11-09T14:16:48.169Z,14.35
2022-11-09T14:19:49.336Z,14.23
2022-11-09T14:22:36.115Z,14.19
2022-11-09T14:25:24.164Z,14.06
2022-11-09T14:28:22.343Z,13.94
2022-11-09T14:31:26.575Z,13.88
2022-11-09T14:34:16.702Z,13.80
2022-11-09T14:37:05.753Z,13.89
2022-11-09T14:39:53.981Z,13.99
2022-11-09T14:42:43.498Z,14.04
2022-11-09T14:45:31.963Z,14.06
2022-11-09T14:48:20.124Z,14.09
2022-11-09T14:51:07.911Z,14.05
2022-11-09T14:53:53.964Z,14.02
2022-11-09T14:56:40.453Z,13.93
2022-11-09T14:59:34.639Z,13.91
2022-11-09T15:02:22.202Z,13.93
2022-11-09T15:05:28.161Z,13.83
2022-11-09T15:08:20.117Z,13.69
2022-11-09T15:11:06.349Z,13.61
2022-11-09T15:13:52.257Z,13.64
2022-11-09T15:16:39.260Z,13.62
2022-11-09T15:19:34.595Z,13.62
2022-11-09T15:22:56.492Z,13.58
2022-11-09T15:25:43.233Z,13.33
2022-11-09T15:28:30.957Z,13.20
2022-11-09T15:31:19.318Z,13.18
2022-11-09T15:34:22.968Z,13.35
2022-11-09T15:37:28.020Z,13.49
2022-11-09T15:40:17.225Z,13.47
2022-11-09T15:43:02.856Z,13.16
2022-11-09T15:45:48.905Z,13.00
2022-11-09T15:48:35.388Z,12.87
2022-11-09T15:51:21.545Z,12.76
2022-11-09T15:54:07.707Z,12.70
2022-11-09T15:56:53.584Z,12.63
2022-11-09T15:59:39.521Z,12.55
2022-11-09T16:02:25.661Z,12.46
2022-11-09T16:05:11.885Z,12.46
2022-11-09T16:07:57.565Z,12.43
2022-11-09T16:10:44.437Z,12.38
2022-11-09T16:13:30.548Z,12.30
2022-11-09T16:16:16.803Z,12.24
2022-11-09T16:19:02.821Z,12.21
2022-11-09T16:21:48.900Z,12.09
2022-11-09T16:24:35.307Z,12.05
2022-11-09T16:27:48.382Z,12.02
2022-11-09T16:30:27.743Z,12.04
2022-11-09T16:33:14.003Z,12.00
2022-11-09T16:36:02.331Z,11.96
2022-11-09T16:38:50.828Z,11.94
2022-11-09T16:41:39.521Z,11.93
2022-11-09T16:44:26.208Z,11.92
2022-11-09T16:47:15.046Z,11.91
2022-11-09T16:50:00.912Z,11.88
2022-11-09T16:52:46.853Z,11.87
2022-11-09T16:55:33.008Z,11.86
2022-11-09T16:58:19.382Z,11.87
2022-11-09T17:01:14.496Z,11.84
2022-11-09T17:04:02.280Z,11.86
2022-11-09T17:06:49.100Z,11.85
2022-11-09T17:09:35.335Z,11.84
2022-11-09T17:12:21.138Z,11.83
2022-11-09T17:15:07.984Z,11.81
2022-11-09T17:17:53.939Z,11.79
2022-11-09T17:20:48.442Z,11.79
2022-11-09T17:23:34.232Z,11.79
2022-11-09T17:26:21.183Z,11.78
2022-11-09T17:29:07.818Z,11.79
2022-11-09T17:31:53.791Z,11.79
2022-11-09T17:34:39.874Z,11.76
2022-11-09T17:37:26.295Z,11.85
2022-11-09T17:40:12.637Z,12.00
2022-11-09T17:42:59.582Z,12.08
2022-11-09T17:45:45.459Z,11.98
2022-11-09T17:48:32.954Z,11.91
2022-11-09T17:51:20.419Z,11.86
2022-11-09T17:54:06.583Z,11.79
2022-11-09T17:56:52.319Z,11.78
2022-11-09T17:59:38.435Z,11.78
2022-11-09T18:02:25.408Z,11.75
2022-11-09T18:05:11.389Z,11.73
2022-11-09T18:07:57.318Z,11.69
2022-11-09T18:10:45.405Z,11.79
2022-11-09T18:13:31.542Z,11.65
2022-11-09T18:16:19.642Z,11.60
2022-11-09T18:19:05.921Z,11.76
2022-11-09T18:21:51.924Z,11.69
2022-11-09T18:24:37.945Z,11.75
2022-11-09T18:27:29.083Z,11.58
2022-11-09T18:30:17.186Z,11.54
2022-11-09T18:33:02.904Z,11.54
2022-11-09T18:36:03.493Z,11.47
2022-11-09T18:38:51.935Z,11.46
2022-11-09T18:41:38.016Z,11.45
2022-11-09T18:44:24.084Z,11.42
2022-11-09T18:47:10.196Z,11.49
2022-11-09T18:49:55.917Z,11.47
2022-11-09T18:52:42.002Z,11.58
2022-11-09T18:55:28.040Z,11.56
2022-11-09T18:58:14.549Z,11.61
2022-11-09T19:01:03.798Z,11.65
2022-11-09T19:03:50.071Z,11.65
2022-11-09T19:06:36.509Z,11.63
2022-11-09T19:09:38.764Z,11.64
2022-11-09T19:12:25.209Z,11.65
2022-11-09T19:15:11.550Z,11.65
2022-11-09T19:17:57.300Z,11.65
2022-11-09T19:20:43.237Z,11.64
2022-11-09T19:23:34.158Z,11.65
2022-11-09T19:26:22.011Z,11.60
2022-11-09T19:29:08.876Z,11.63
2022-11-09T19:31:55.100Z,11.60
2022-11-09T19:34:42.614Z,11.61
2022-11-09T19:37:28.893Z,11.61
2022-11-09T19:40:15.300Z,11.65
2022-11-09T19:43:01.145Z,11.64
2022-11-09T19:45:47.163Z,11.67
2022-11-09T19:48:35.030Z,11.64
2022-11-09T19:51:21.115Z,11.68
2022-11-09T19:54:07.574Z,11.65
2022-11-09T19:56:53.683Z,11.64
2022-11-09T19:59:39.752Z,11.64
2022-11-09T20:02:25.746Z,11.64
2022-11-09T20:05:11.685Z,11.62
2022-11-09T20:07:57.939Z,11.59
2022-11-09T20:10:43.869Z,11.57
2022-11-09T20:13:30.072Z,11.60
2022-11-09T20:16:16.091Z,11.57
2022-11-09T20:19:03.763Z,11.59
2022-11-09T20:21:49.877Z,11.55
2022-11-09T20:24:35.531Z,11.55
2022-11-09T20:27:21.590Z,11.55
2022-11-09T20:30:08.128Z,11.56
2022-11-09T20:32:54.175Z,11.61
2022-11-09T20:35:44.299Z,11.57
2022-11-09T20:38:33.414Z,11.56
2022-11-09T20:41:24.206Z,11.55
2022-11-09T20:44:11.995Z,11.61
2022-11-09T20:46:57.753Z,11.55
2022-11-09T20:49:43.757Z,11.51
2022-11-09T20:52:29.631Z,11.48
2022-11-09T20:55:15.752Z,11.48
2022-11-09T20:58:01.850Z,11.47
2022-11-09T21:00:47.917Z,11.39
2022-11-09T21:03:34.439Z,11.47
2022-11-09T21:06:21.404Z,11.45
2022-11-09T21:09:07.116Z,11.48
2022-11-09T21:12:11.476Z,11.43
2022-11-09T21:14:57.601Z,11.41
2022-11-09T21:17:43.703Z,11.35
2022-11-09T21:20:29.782Z,11.33
2022-11-09T21:23:15.767Z,11.35
2022-11-09T21:26:20.230Z,11.33
2022-11-09T21:29:27.867Z,11.27
2022-11-09T21:32:13.941Z,11.17
2022-11-09T21:34:59.867Z,11.18
2022-11-09T21:37:45.779Z,11.18
2022-11-09T21:40:31.647Z,11.14
2022-11-09T21:43:17.917Z,11.13
2022-11-09T21:46:03.856Z,11.18
2022-11-09T21:48:50.546Z,11.09
2022-11-09T21:51:37.470Z,11.03
2022-11-09T21:54:23.630Z,10.92
2022-11-09T21:57:09.620Z,10.96
2022-11-09T21:59:55.560Z,10.98
2022-11-09T22:02:42.143Z,11.03
2022-11-09T22:05:27.889Z,11.01
2022-11-09T22:08:13.889Z,11.02
2022-11-09T22:11:10.296Z,11.06
2022-11-09T22:14:14.919Z,11.05
2022-11-09T22:17:00.994Z,11.04
2022-11-09T22:20:05.715Z,10.98
2022-11-09T22:22:51.461Z,10.91
2022-11-09T22:25:37.387Z,10.89
2022-11-09T22:28:23.490Z,10.89
2022-11-09T22:31:10.542Z,10.85
2022-11-09T22:33:56.512Z,10.80
2022-11-09T22:36:42.625Z,10.76
2022-11-09T22:39:28.570Z,10.71
2022-11-09T22:42:14.782Z,10.79
2022-11-09T22:45:00.857Z,10.81
2022-11-09T22:47:46.903Z,10.76
2022-11-09T22:50:33.192Z,10.67
2022-11-09T22:53:19.268Z,10.67
2022-11-09T22:56:05.964Z,10.69
2022-11-09T22:58:52.768Z,10.66
2022-11-09T23:01:38.322Z,10.70
2022-11-09T23:04:24.219Z,10.73
2022-11-09T23:07:10.415Z,10.68
2022-11-09T23:09:56.233Z,10.63
2022-11-09T23:12:42.347Z,10.62
2022-11-09T23:15:28.960Z,10.63
2022-11-09T23:18:33.506Z,10.61
2022-11-09T23:21:21.121Z,10.54
2022-11-09T23:24:28.100Z,10.52
2022-11-09T23:27:14.201Z,10.54
2022-11-09T23:30:00.169Z,10.39
2022-11-09T23:32:46.082Z,10.52
2022-11-09T23:35:32.869Z,10.52
2022-11-09T23:38:18.536Z,10.44
2022-11-09T23:41:06.083Z,10.40
2022-11-09T23:43:55.986Z,10.48
2022-11-09T23:46:41.643Z,10.43
2022-11-09T23:49:27.599Z,10.45
2022-11-09T23:52:13.911Z,10.42
2022-11-09T23:54:59.824Z,10.38
2022-11-09T23:57:45.899Z,10.40
